Time;durP1;ratioP1;P1;durP2;ratioP2;P2;SDS_P1;SDS_P2;PMS_P1;PMS_P2;Temp;Humidity;BMP_temperature;BMP_pressure;BME280_temperature;BME280_humidity;BME280_pressure;Samples;Min_cycle;Max_cycle;Signal;HPM_P1;HPM_P2
2022/09/18 00:00:39;;;;;;;3.85;1.85;;;;;;;10.92;95.43;101604.72;5012307;28;20075;-77
2022/09/18 00:03:04;;;;;;;6.50;2.03;;;;;;;10.93;96.10;101600.25;5012651;28;20444;-77
2022/09/18 00:05:29;;;;;;;8.93;2.15;;;;;;;10.90;95.80;101592.47;5011660;28;20160;-77
2022/09/18 00:07:55;;;;;;;7.38;2.40;;;;;;;10.89;96.05;101591.63;5014279;28;20085;-76
2022/09/18 00:10:20;;;;;;;7.30;2.30;;;;;;;10.90;96.42;101595.13;5012317;28;20117;-76
2022/09/18 00:12:45;;;;;;;6.63;2.67;;;;;;;10.88;96.53;101595.25;5012010;28;20022;-75
2022/09/18 00:15:11;;;;;;;11.57;3.00;;;;;;;10.88;96.76;101597.06;5011217;28;20026;-76
2022/09/18 00:17:37;;;;;;;6.35;2.50;;;;;;;10.86;97.11;101601.63;5011812;28;20292;-76
2022/09/18 00:20:03;;;;;;;3.88;2.22;;;;;;;10.85;97.54;101594.59;5012657;28;20026;-76
2022/09/18 00:22:28;;;;;;;7.90;2.63;;;;;;;10.88;96.84;101592.56;5020086;28;20028;-77
2022/09/18 00:24:53;;;;;;;9.95;3.35;;;;;;;10.89;96.77;101596.94;5015280;28;20085;-76
2022/09/18 00:27:18;;;;;;;6.90;3.30;;;;;;;10.89;96.75;101591.63;5011061;28;20393;-76
2022/09/18 00:29:44;;;;;;;8.75;3.05;;;;;;;10.91;96.88;101592.38;5014136;28;20375;-76
2022/09/18 00:32:09;;;;;;;7.07;3.05;;;;;;;10.92;97.21;101591.44;5011030;28;20026;-77
2022/09/18 00:34:34;;;;;;;6.53;2.47;;;;;;;10.91;97.37;101586.22;5008719;28;20403;-77
2022/09/18 00:36:59;;;;;;;5.50;2.58;;;;;;;10.91;97.71;101587.06;5012951;28;20036;-77
2022/09/18 00:39:25;;;;;;;6.43;2.60;;;;;;;10.91;96.73;101587.06;5012031;28;20112;-77
2022/09/18 00:41:50;;;;;;;8.48;2.90;;;;;;;10.95;97.12;101586.88;5003189;28;20289;-77
2022/09/18 00:44:28;;;;;;;6.80;4.20;;;;;;;10.93;97.23;101590.47;5012830;28;20036;-76
2022/09/18 00:47:10;;;;;;;4.70;3.20;;;;;;;10.95;97.34;101600.16;5007778;28;20116;-77
2022/09/18 00:49:43;;;;;;;5.80;3.22;;;;;;;10.96;97.22;101591.22;5011246;28;20285;-77
2022/09/18 00:52:10;;;;;;;4.93;2.33;;;;;;;10.95;96.81;101586.88;5082370;23;20135;-55
2022/09/18 00:55:01;;;;;;;6.85;2.83;;;;;;;10.92;96.93;101587.91;5049595;28;20095;-55
2022/09/18 00:57:31;;;;;;;8.07;2.60;;;;;;;10.92;97.28;101590.56;5048377;28;20119;-55
2022/09/18 00:59:59;;;;;;;8.27;2.65;;;;;;;10.92;96.71;101593.22;5050153;28;20021;-55
2022/09/18 01:02:24;;;;;;;6.65;2.60;;;;;;;10.90;96.45;101584.50;5051106;28;20133;-55
2022/09/18 01:04:50;;;;;;;6.13;2.30;;;;;;;10.91;97.10;101589.72;5050083;28;20033;-56
2022/09/18 01:07:46;;;;;;;5.15;2.55;;;;;;;10.91;97.93;101589.72;5049456;28;20090;-55
2022/09/18 01:10:34;;;;;;;8.30;2.80;;;;;;;10.90;97.42;101592.47;5051315;28;20025;-55
2022/09/18 01:13:21;;;;;;;5.00;2.45;;;;;;;10.88;97.70;101589.06;5051014;28;20025;-54
2022/09/18 01:15:56;;;;;;;4.28;2.38;;;;;;;10.87;97.77;101596.19;5052204;28;20033;-56
2022/09/18 01:18:49;;;;;;;7.22;2.42;;;;;;;10.91;97.58;101603.00;5050093;28;20375;-53
2022/09/18 01:21:17;;;;;;;7.70;2.53;;;;;;;10.90;97.67;101598.63;5048070;28;20060;-55
2022/09/18 01:23:54;;;;;;;6.68;2.63;;;;;;;10.92;97.56;101582.59;5047890;28;20382;-54
2022/09/18 01:26:38;;;;;;;5.32;2.45;;;;;;;10.93;97.44;101592.28;5044075;28;20029;-55
2022/09/18 01:29:10;;;;;;;6.32;2.40;;;;;;;10.94;97.72;101593.97;5056563;28;20119;-55
2022/09/18 01:31:49;;;;;;;7.95;2.53;;;;;;;10.96;97.08;101596.53;5051160;28;20036;-55
2022/09/18 01:34:24;;;;;;;;;;;;;;;11.06;95.61;101595.00;5055451;28;20440;-54
2022/09/18 01:37:23;;;;;;;8.13;2.53;;;;;;;11.01;96.85;101587.31;5049715;28;19999;-55
2022/09/18 01:39:55;;;;;;;5.15;2.60;;;;;;;10.97;96.73;101587.59;5043727;28;20025;-56
2022/09/18 01:42:24;;;;;;;7.07;2.40;;;;;;;10.96;97.13;101585.91;5053322;28;20021;-56
2022/09/18 01:44:53;;;;;;;6.75;2.65;;;;;;;10.97;97.01;101579.63;5052404;28;20049;-55
2022/09/18 01:47:24;;;;;;;8.20;2.90;;;;;;;10.95;97.04;101578.91;5060578;28;20041;-55
2022/09/18 01:49:52;;;;;;;7.85;2.75;;;;;;;10.96;97.21;101586.78;5053439;28;20486;-55
2022/09/18 01:52:28;;;;;;;10.68;3.40;;;;;;;10.96;96.68;101577.91;5053344;28;20068;-55
2022/09/18 01:54:56;;;;;;;7.82;2.83;;;;;;;10.93;97.10;101581.66;5062178;28;20032;-56
2022/09/18 01:57:45;;;;;;;8.02;2.80;;;;;;;10.95;97.71;101570.91;5061970;28;20021;-56
2022/09/18 02:00:12;;;;;;;5.28;2.55;;;;;;;10.93;97.45;101571.03;5057235;28;20044;-54
2022/09/18 02:02:44;;;;;;;5.32;2.70;;;;;;;10.89;97.06;101561.53;5068194;28;20059;-55
2022/09/18 02:05:17;;;;;;;6.53;2.67;;;;;;;10.87;96.96;101566.09;5062251;28;20078;-55
2022/09/18 02:07:53;;;;;;;6.80;2.92;;;;;;;10.87;97.82;101566.09;5066064;28;20421;-56
2022/09/18 02:10:22;;;;;;;6.53;3.05;;;;;;;10.86;98.33;101567.91;5056064;28;20445;-55
2022/09/18 02:12:49;;;;;;;;;;;;;;;10.95;96.56;101574.41;5056158;28;20016;-55
2022/09/18 02:15:15;;;;;;;9.80;3.05;;;;;;;10.86;98.02;101572.38;5058048;28;19916;-55
2022/09/18 02:17:48;;;;;;;8.40;2.97;;;;;;;10.83;98.50;101567.28;5059878;28;20025;-56
2022/09/18 02:20:29;;;;;;;7.63;2.83;;;;;;;10.81;98.80;101561.19;5064027;28;20462;-56
2022/09/18 02:23:00;;;;;;;9.10;2.65;;;;;;;10.81;99.38;101558.53;5051812;28;20036;-55
2022/09/18 02:25:35;;;;;;;9.45;3.10;;;;;;;10.79;99.15;101553.34;5055372;28;20271;-56
2022/09/18 02:28:02;;;;;;;5.25;2.33;;;;;;;10.79;98.83;101553.34;5053467;28;20056;-55
2022/09/18 02:30:29;;;;;;;8.88;3.03;;;;;;;10.80;98.89;101554.19;5053739;28;20033;-54
2022/09/18 02:32:55;;;;;;;7.28;2.40;;;;;;;10.81;98.92;101550.56;5054334;28;20029;-56
2022/09/18 02:35:25;;;;;;;7.60;2.35;;;;;;;10.77;99.19;101541.94;5059604;28;20029;-55
2022/09/18 02:38:02;;;;;;;9.77;2.40;;;;;;;10.82;99.36;101544.28;5060808;28;20055;-55
2022/09/18 02:40:40;;;;;;;8.43;2.60;;;;;;;10.82;99.38;101545.13;5054433;28;20084;-55
2022/09/18 02:43:43;;;;;;;8.30;2.13;;;;;;;10.85;99.09;101547.59;5055275;28;20048;-54
2022/09/18 02:46:45;;;;;;;9.27;2.53;;;;;;;10.86;99.55;101548.47;5054183;28;20494;-54
2022/09/18 02:49:21;;;;;;;7.35;2.47;;;;;;;10.84;99.25;101553.00;5041615;28;20032;-55
2022/09/18 02:52:00;;;;;;;9.95;2.72;;;;;;;10.79;99.86;101548.03;5054887;28;20120;-54
2022/09/18 02:54:32;;;;;;;9.02;2.33;;;;;;;10.84;99.86;101550.34;5060757;28;20036;-55
2022/09/18 02:57:08;;;;;;;7.07;2.42;;;;;;;10.85;99.84;101539.63;5056408;28;20490;-55
2022/09/18 02:59:41;;;;;;;6.78;2.20;;;;;;;10.86;99.71;101528.06;5058788;28;20043;-54
2022/09/18 03:02:07;;;;;;;7.15;2.63;;;;;;;10.87;99.81;101535.06;5061865;28;20454;-53
2022/09/18 03:04:32;;;;;;;5.63;2.50;;;;;;;10.89;99.95;101541.13;5068737;28;20470;-55
2022/09/18 03:06:58;;;;;;;8.13;2.28;;;;;;;10.89;100.00;101545.59;5062084;28;20021;-56
2022/09/18 03:09:23;;;;;;;7.28;2.90;;;;;;;10.91;100.00;101543.69;5064993;28;21805;-56
2022/09/18 03:11:49;;;;;;;10.88;3.05;;;;;;;10.90;100.00;101541.97;5069226;28;20025;-56
2022/09/18 03:14:15;;;;;;;7.45;2.35;;;;;;;10.89;100.00;101530.50;5058489;28;20061;-55
2022/09/18 03:16:40;;;;;;;9.35;2.33;;;;;;;10.92;100.00;101535.63;5058396;28;20040;-56
2022/09/18 03:19:05;;;;;;;10.27;2.28;;;;;;;10.92;100.00;101532.09;5056984;28;20036;-55
2022/09/18 03:21:30;;;;;;;8.63;2.05;;;;;;;10.95;100.00;101528.38;5058683;28;20119;-54
2022/09/18 03:23:56;;;;;;;7.65;2.30;;;;;;;10.95;100.00;101525.72;5060296;28;20036;-56
2022/09/18 03:26:21;;;;;;;6.93;2.00;;;;;;;10.97;100.00;101531.78;5053576;28;20056;-55
2022/09/18 03:28:47;;;;;;;7.50;2.20;;;;;;;10.96;100.00;101536.25;5060910;28;20029;-56
2022/09/18 03:31:12;;;;;;;4.72;2.03;;;;;;;10.96;100.00;101549.56;5059642;28;20028;-55
2022/09/18 03:33:38;;;;;;;6.97;2.10;;;;;;;10.97;100.00;101540.59;5059742;28;20048;-56
2022/09/18 03:36:07;;;;;;;7.43;1.95;;;;;;;10.96;100.00;101532.72;5058433;28;20028;-56
2022/09/18 03:38:33;;;;;;;7.13;2.22;;;;;;;10.96;100.00;101520.31;5059433;28;20041;-56
2022/09/18 03:40:58;;;;;;;10.82;2.20;;;;;;;10.96;100.00;101533.59;5055007;28;20398;-56
2022/09/18 03:43:25;;;;;;;5.80;1.70;;;;;;;10.95;100.00;101528.38;5050808;28;20082;-56
2022/09/18 03:45:50;;;;;;;7.63;2.00;;;;;;;10.94;100.00;101530.19;5051774;28;20048;-56
2022/09/18 03:48:15;;;;;;;5.05;1.80;;;;;;;10.93;100.00;101509.88;5060395;28;20482;-56
2022/09/18 03:50:41;;;;;;;5.43;1.47;;;;;;;10.92;100.00;101518.81;5063315;28;20036;-57
2022/09/18 03:53:07;;;;;;;5.88;1.90;;;;;;;10.91;99.85;101514.47;5066932;28;20283;-56
2022/09/18 03:55:33;;;;;;;8.30;1.80;;;;;;;10.91;99.81;101517.13;5069533;28;20098;-55
2022/09/18 03:57:58;;;;;;;6.20;1.90;;;;;;;10.89;99.58;101516.34;5067283;28;20029;-56
2022/09/18 04:00:24;;;;;;;6.32;1.70;;;;;;;10.90;99.80;101505.63;5055930;28;20032;-57
2022/09/18 04:02:49;;;;;;;5.38;1.58;;;;;;;10.89;99.45;101508.38;5060253;28;20455;-55
2022/09/18 04:05:15;;;;;;;6.03;1.42;;;;;;;10.87;99.84;101507.63;5056381;28;20437;-56
2022/09/18 04:07:40;;;;;;;7.32;1.55;;;;;;;10.85;99.50;101499.75;5060698;28;20111;-56
2022/09/18 04:10:06;;;;;;;6.60;1.80;;;;;;;10.84;99.10;101495.41;5050144;28;20540;-56
2022/09/18 04:12:31;;;;;;;7.32;1.63;;;;;;;10.83;99.19;101499.03;5061667;28;20112;-56
2022/09/18 04:14:56;;;;;;;5.00;1.27;;;;;;;10.86;99.32;101500.63;5058389;28;20021;-55
2022/09/18 04:17:22;;;;;;;5.57;1.45;;;;;;;10.85;99.13;101506.91;5062176;28;20024;-57
2022/09/18 04:19:47;;;;;;;5.20;1.45;;;;;;;10.84;99.37;101500.75;5051795;28;20025;-56
2022/09/18 04:22:13;;;;;;;2.13;1.13;;;;;;;10.85;98.61;101507.72;5062660;28;20394;-55
2022/09/18 04:24:38;;;;;;;6.95;1.52;;;;;;;10.83;98.59;101507.00;5056717;28;20027;-57
2022/09/18 04:27:04;;;;;;;9.00;1.55;;;;;;;10.80;98.63;101503.69;5057264;28;20016;-56
2022/09/18 04:29:31;;;;;;;5.68;1.65;;;;;;;10.80;98.68;101506.34;5056709;28;20104;-56
2022/09/18 04:31:56;;;;;;;5.80;1.75;;;;;;;10.76;98.69;101502.19;5054797;28;20044;-56
2022/09/18 04:34:22;;;;;;;5.97;1.80;;;;;;;10.78;99.31;101510.94;5051249;28;20390;-55
2022/09/18 04:36:47;;;;;;;7.40;1.97;;;;;;;10.77;98.59;101506.56;5050970;28;20358;-55
2022/09/18 04:39:12;;;;;;;7.35;1.52;;;;;;;10.75;98.67;101509.31;5046317;28;20296;-55
2022/09/18 04:41:37;;;;;;;6.82;1.50;;;;;;;10.75;98.61;101514.63;5054284;28;20028;-56
2022/09/18 04:44:03;;;;;;;5.28;1.55;;;;;;;10.72;98.74;101521.00;5059127;28;20025;-56
2022/09/18 04:46:28;;;;;;;9.23;1.75;;;;;;;10.73;99.35;101513.88;5062280;28;20480;-56
2022/09/18 04:48:54;;;;;;;5.68;1.40;;;;;;;10.70;99.35;101514.91;5054405;28;20371;-56
2022/09/18 04:51:19;;;;;;;8.13;1.77;;;;;;;10.68;99.31;101516.84;5065689;28;20049;-56
2022/09/18 04:53:44;;;;;;;13.75;1.98;;;;;;;10.67;99.43;101517.78;5055522;28;20020;-56
2022/09/18 04:56:10;;;;;;;2.55;1.42;;;;;;;10.66;99.35;101517.91;5067201;28;20036;-55
2022/09/18 04:58:35;;;;;;;13.32;1.60;;;;;;;10.65;99.62;101522.34;5050467;28;20013;-56
2022/09/18 05:01:00;;;;;;;4.38;1.63;;;;;;;10.65;99.51;101525.00;5049502;28;20033;-56
2022/09/18 05:03:26;;;;;;;5.40;1.73;;;;;;;10.64;99.61;101512.69;5051701;28;20075;-56
2022/09/18 05:05:51;;;;;;;8.90;1.85;;;;;;;10.63;100.00;101508.31;5051892;28;20095;-56
2022/09/18 05:08:17;;;;;;;8.45;1.92;;;;;;;10.61;100.00;101504.94;5057517;28;20037;-54
2022/09/18 05:10:42;;;;;;;6.50;1.45;;;;;;;10.63;100.00;101496.84;5060248;28;20071;-54
2022/09/18 05:13:08;;;;;;;6.10;1.90;;;;;;;10.61;100.00;101486.34;5068116;28;20029;-55
2022/09/18 05:15:34;;;;;;;8.95;1.60;;;;;;;10.61;100.00;101496.97;5069674;28;20371;-55
2022/09/18 05:18:01;;;;;;;5.35;1.35;;;;;;;10.62;100.00;101501.28;5067937;28;20513;-54
2022/09/18 05:20:27;;;;;;;3.75;1.42;;;;;;;10.62;100.00;101506.59;5066015;28;20035;-55
2022/09/18 05:22:52;;;;;;;5.43;1.73;;;;;;;10.62;100.00;101513.75;5055992;28;20107;-55
2022/09/18 05:25:19;;;;;;;5.07;1.95;;;;;;;10.62;100.00;101517.25;5057306;28;20469;-55
2022/09/18 05:27:52;;;;;;;10.43;2.10;;;;;;;10.63;100.00;101504.81;5056849;28;20028;-55
2022/09/18 05:30:17;;;;;;;9.07;1.85;;;;;;;10.63;100.00;101510.97;5067847;28;20482;-55
2022/09/18 05:32:42;;;;;;;7.60;1.77;;;;;;;10.64;100.00;101525.09;5062107;28;20048;-55
2022/09/18 05:35:08;;;;;;;5.47;1.83;;;;;;;10.63;100.00;101528.72;5055116;28;20025;-54
2022/09/18 05:37:33;;;;;;;6.20;1.55;;;;;;;10.64;100.00;101535.72;5054378;28;20271;-55
2022/09/18 05:39:58;;;;;;;7.00;1.70;;;;;;;10.64;100.00;101530.41;5054379;28;20029;-55
2022/09/18 05:42:23;;;;;;;8.03;1.77;;;;;;;10.65;100.00;101530.31;5052818;28;20033;-55
2022/09/18 05:44:49;;;;;;;9.18;2.13;;;;;;;10.66;100.00;101520.56;5053111;28;20309;-56
2022/09/18 05:47:14;;;;;;;7.72;1.90;;;;;;;10.67;100.00;101519.59;5058769;28;20035;-56
2022/09/18 05:49:39;;;;;;;8.43;1.70;;;;;;;10.68;100.00;101518.66;5059931;28;20115;-55
2022/09/18 05:52:05;;;;;;;7.95;2.00;;;;;;;10.67;100.00;101517.78;5062905;28;20319;-55
2022/09/18 05:54:31;;;;;;;8.30;2.10;;;;;;;10.69;100.00;101523.88;5067207;28;20520;-53
2022/09/18 05:56:56;;;;;;;8.15;2.00;;;;;;;10.68;100.00;101519.50;5061357;28;20033;-56
2022/09/18 05:59:21;;;;;;;10.07;2.10;;;;;;;10.71;100.00;101518.44;5057666;28;20462;-54
2022/09/18 06:01:46;;;;;;;7.90;2.05;;;;;;;10.71;100.00;101508.66;5051991;28;20291;-56
2022/09/18 06:04:12;;;;;;;6.60;1.77;;;;;;;10.74;100.00;101518.22;5065917;28;20056;-55
2022/09/18 06:06:37;;;;;;;8.13;2.25;;;;;;;10.76;100.00;101510.16;5057192;28;20024;-56
2022/09/18 06:09:02;;;;;;;9.57;2.10;;;;;;;10.77;100.00;101506.56;5058509;28;20044;-55
2022/09/18 06:11:28;;;;;;;8.68;1.95;;;;;;;10.81;100.00;101508.91;5057205;28;20551;-55
2022/09/18 06:13:53;;;;;;;10.45;2.17;;;;;;;10.82;100.00;101499.97;5055749;28;20037;-55
2022/09/18 06:16:19;;;;;;;5.40;2.20;;;;;;;10.85;100.00;101496.25;5052411;28;20082;-55
2022/09/18 06:18:44;;;;;;;9.45;2.17;;;;;;;10.87;100.00;101503.16;5052079;28;20626;-56
2022/09/18 06:21:13;;;;;;;11.73;2.08;;;;;;;10.92;100.00;101500.19;5049834;28;20036;-55
2022/09/18 06:23:39;;;;;;;12.07;2.03;;;;;;;10.96;100.00;101506.16;5052670;28;20107;-57
2022/09/18 06:26:05;;;;;;;9.13;2.30;;;;;;;10.96;100.00;101504.38;5056186;28;20147;-56
2022/09/18 06:28:32;;;;;;;10.98;2.30;;;;;;;11.02;100.00;101505.75;5056084;28;20082;-56
2022/09/18 06:30:59;;;;;;;8.80;2.05;;;;;;;11.04;100.00;101503.84;5048014;28;20490;-55
2022/09/18 06:33:24;;;;;;;6.13;1.92;;;;;;;11.06;100.00;101505.44;5044798;28;20136;-57
2022/09/18 06:35:50;;;;;;;8.57;2.22;;;;;;;11.08;100.00;101492.88;5048863;28;20121;-56
2022/09/18 06:38:16;;;;;;;12.80;2.45;;;;;;;11.12;100.00;101493.53;5050710;28;20068;-57
2022/09/18 06:40:49;;;;;;;8.48;2.83;;;;;;;11.16;100.00;101491.50;5053683;28;20083;-57
2022/09/18 06:43:15;;;;;;;6.50;2.10;;;;;;;11.18;100.00;101493.13;5057571;28;20446;-56
2022/09/18 06:45:40;;;;;;;6.75;1.90;;;;;;;11.21;100.00;101492.91;5047954;28;21637;-56
2022/09/18 06:48:06;;;;;;;11.65;2.03;;;;;;;11.24;100.00;101498.03;5048979;28;20048;-58
2022/09/18 06:50:31;;;;;;;7.65;2.03;;;;;;;11.27;100.00;101499.59;5053121;28;20029;-57
2022/09/18 06:53:04;;;;;;;9.20;2.40;;;;;;;11.30;100.00;101492.25;5048309;28;20052;-55
2022/09/18 06:55:30;;;;;;;8.63;2.15;;;;;;;11.34;100.00;101498.25;5045987;28;20028;-56
2022/09/18 06:57:57;;;;;;;9.38;2.50;;;;;;;11.37;100.00;101494.50;5048812;28;20364;-57
2022/09/18 07:00:23;;;;;;;9.90;2.17;;;;;;;11.38;100.00;101488.22;5047950;28;20029;-56
2022/09/18 07:02:56;;;;;;;7.97;1.98;;;;;;;11.45;100.00;101492.16;5049766;28;20029;-57
2022/09/18 07:05:23;;;;;;;6.53;2.00;;;;;;;11.45;100.00;101485.00;5046339;28;20132;-54
2022/09/18 07:07:48;;;;;;;7.60;2.08;;;;;;;11.50;100.00;101497.16;5050274;28;20029;-57
2022/09/18 07:10:13;;;;;;;9.55;2.10;;;;;;;11.52;100.00;101501.41;5049816;28;20421;-57
2022/09/18 07:12:39;;;;;;;7.43;2.30;;;;;;;11.58;100.00;101495.66;5049310;28;20024;-57
2022/09/18 07:15:05;;;;;;;8.32;2.03;;;;;;;11.62;100.00;101490.97;5050401;28;20032;-58
2022/09/18 07:17:30;;;;;;;9.90;2.20;;;;;;;11.65;100.00;101490.75;5052598;28;20245;-57
2022/09/18 07:19:55;;;;;;;7.30;1.83;;;;;;;11.71;100.00;101495.66;5052956;28;20395;-57
2022/09/18 07:22:21;;;;;;;6.87;2.00;;;;;;;11.72;100.00;101497.31;5047549;28;20108;-57
2022/09/18 07:24:46;;;;;;;8.03;2.03;;;;;;;11.76;100.00;101484.69;5056197;28;20298;-57
2022/09/18 07:27:11;;;;;;;11.68;2.30;;;;;;;11.77;100.00;101476.56;5049135;28;20298;-55
2022/09/18 07:29:36;;;;;;;6.47;2.10;;;;;;;11.81;100.00;101480.72;5049633;28;20095;-54
2022/09/18 07:32:02;;;;;;;8.07;1.80;;;;;;;11.83;100.00;101473.47;5048435;28;20295;-55
2022/09/18 07:34:27;;;;;;;9.82;1.80;;;;;;;11.84;99.52;101464.53;5051228;28;20186;-56
2022/09/18 07:36:52;;;;;;;8.20;1.70;;;;;;;11.90;100.00;101476.53;5047204;28;20071;-58
2022/09/18 07:39:18;;;;;;;7.65;1.92;;;;;;;11.93;99.67;101464.88;5055525;28;20036;-57
2022/09/18 07:41:43;;;;;;;6.82;2.20;;;;;;;11.99;100.00;101465.28;5053200;28;20067;-57
2022/09/18 07:44:09;;;;;;;6.82;1.90;;;;;;;12.04;100.00;101464.94;5049138;28;20445;-57
2022/09/18 07:46:34;;;;;;;5.40;1.90;;;;;;;12.06;99.59;101472.78;5046050;28;20037;-56
2022/09/18 07:48:59;;;;;;;5.10;1.77;;;;;;;12.10;100.00;101471.63;5048437;28;20052;-57
2022/09/18 07:51:25;;;;;;;8.27;1.63;;;;;;;12.16;100.00;101476.50;5048788;28;20067;-57
2022/09/18 07:53:50;;;;;;;10.73;2.37;;;;;;;12.28;100.00;101466.75;5053487;28;20040;-57
2022/09/18 07:56:15;;;;;;;6.85;2.00;;;;;;;12.38;99.81;101465.09;5061488;28;20283;-56
2022/09/18 07:58:40;;;;;;;7.23;2.10;;;;;;;12.50;99.61;101458.84;5051782;28;20422;-55
2022/09/18 08:01:06;;;;;;;4.03;1.80;;;;;;;12.62;98.81;101473.06;5057249;28;20283;-57
2022/09/18 08:03:31;;;;;;;6.55;1.98;;;;;;;12.69;97.24;101474.31;5039990;28;20303;-57
2022/09/18 08:05:57;;;;;;;8.70;1.92;;;;;;;12.72;97.24;101471.44;5052280;28;20036;-56
2022/09/18 08:08:22;;;;;;;5.28;2.00;;;;;;;12.80;95.99;101472.66;5051880;28;20029;-55
2022/09/18 08:10:48;;;;;;;6.00;1.88;;;;;;;12.82;96.35;101470.72;5051365;28;20475;-57
2022/09/18 08:13:13;;;;;;;7.53;2.13;;;;;;;12.87;96.13;101466.75;5050992;28;20036;-56
2022/09/18 08:15:41;;;;;;;6.97;1.60;;;;;;;12.92;96.35;101464.59;5052555;28;20383;-55
2022/09/18 08:18:09;;;;;;;7.10;2.00;;;;;;;12.95;96.00;101461.66;5050455;28;20057;-55
2022/09/18 08:20:35;;;;;;;6.97;1.52;;;;;;;12.97;95.15;101477.53;5049961;28;20029;-57
2022/09/18 08:23:06;;;;;;;4.57;1.50;;;;;;;12.99;95.49;101477.41;5054591;28;20112;-57
2022/09/18 08:25:31;;;;;;;5.32;1.48;;;;;;;12.95;95.04;101477.66;5061496;28;20026;-55
2022/09/18 08:28:05;;;;;;;4.32;1.55;;;;;;;12.96;95.20;101483.84;5056888;28;20111;-56
2022/09/18 08:30:31;;;;;;;6.25;1.60;;;;;;;12.94;95.42;101480.47;5054184;28;20026;-57
2022/09/18 08:33:01;;;;;;;6.38;1.67;;;;;;;12.89;96.10;101478.13;5026727;28;20095;-57
2022/09/18 08:35:29;;;;;;;4.75;1.50;;;;;;;12.87;95.28;101481.88;5044571;28;20024;-57
2022/09/18 08:37:54;;;;;;;3.08;1.45;;;;;;;12.85;95.90;101484.66;5045133;28;20479;-52
2022/09/18 08:40:26;;;;;;;5.20;1.40;;;;;;;12.84;95.47;101482.09;5038702;28;20035;-56
2022/09/18 08:43:03;;;;;;;6.13;1.60;;;;;;;12.87;95.99;101487.22;5048078;28;20487;-56
2022/09/18 08:45:40;;;;;;;4.28;1.60;;;;;;;12.86;95.77;101488.19;5046045;28;20128;-57
2022/09/18 08:48:14;;;;;;;5.03;1.58;;;;;;;12.83;95.27;101475.09;5051340;28;20041;-57
2022/09/18 08:50:42;;;;;;;5.82;1.48;;;;;;;12.86;94.86;101474.88;5050972;28;20025;-57
2022/09/18 08:53:21;;;;;;;7.05;1.50;;;;;;;12.88;94.46;101478.25;5047820;28;20041;-55
2022/09/18 08:55:48;;;;;;;4.22;1.60;;;;;;;12.88;93.46;101478.25;5043354;28;21097;-56
2022/09/18 08:58:19;;;;;;;6.47;1.80;;;;;;;12.83;94.18;101483.09;5049225;28;20041;-57
2022/09/18 09:00:53;;;;;;;5.65;1.50;;;;;;;12.85;94.89;101486.47;5048731;28;20025;-57
2022/09/18 09:03:27;;;;;;;5.57;1.60;;;;;;;12.86;94.99;101482.84;5045748;28;20434;-57
2022/09/18 09:05:58;;;;;;;4.20;1.70;;;;;;;12.82;94.85;101492.88;5045724;28;20032;-57
2022/09/18 09:08:54;;;;;;;4.57;2.63;;;;;;;12.82;94.06;101481.38;5049447;28;20037;-56
2022/09/18 09:12:00;;;;;;;8.52;2.40;;;;;;;12.88;94.31;101494.25;5045681;28;20389;-57
2022/09/18 09:14:48;;;;;;;8.65;2.08;;;;;;;12.84;94.74;101487.44;5035549;28;20091;-57
2022/09/18 09:17:21;;;;;;;4.93;1.85;;;;;;;12.84;94.37;101487.44;5052726;28;20124;-56
2022/09/18 09:19:53;;;;;;;5.72;2.97;;;;;;;12.86;95.68;101488.19;5053413;28;20407;-57
2022/09/18 09:22:33;;;;;;;7.60;2.13;;;;;;;12.88;95.57;101487.09;5055550;28;20036;-57
2022/09/18 09:25:21;;;;;;;7.35;1.90;;;;;;;12.98;95.49;101487.25;5049760;28;20049;-56
2022/09/18 09:27:57;;;;;;;1.85;1.50;;;;;;;12.99;95.20;101491.63;5046115;28;20057;-57
2022/09/18 09:30:23;;;;;;;4.65;1.90;;;;;;;13.00;94.76;101493.31;5040683;28;20604;-56
2022/09/18 09:32:54;;;;;;;4.30;1.80;;;;;;;13.03;94.81;101490.41;5051608;28;20104;-55
2022/09/18 09:35:26;;;;;;;8.18;2.45;;;;;;;13.01;95.49;101489.69;5049061;28;20036;-57
2022/09/18 09:37:52;;;;;;;4.55;2.40;;;;;;;13.02;95.03;101490.53;5049661;28;20265;-54
2022/09/18 09:40:31;;;;;;;7.20;2.42;;;;;;;13.02;95.78;101488.69;5046460;28;20025;-55
2022/09/18 09:43:22;;;;;;;9.02;3.70;;;;;;;13.03;94.33;101492.22;5046505;28;20427;-56
2022/09/18 09:45:50;;;;;;;5.53;2.15;;;;;;;13.03;95.58;101495.75;5045850;28;20079;-58
2022/09/18 09:48:27;;;;;;;8.70;2.47;;;;;;;13.08;97.10;101492.72;5043130;28;20491;-57
2022/09/18 09:51:23;;;;;;;5.35;3.10;;;;;;;13.11;96.79;101501.34;5035085;28;20505;-57
2022/09/18 09:53:51;;;;;;;8.82;2.30;;;;;;;13.16;96.47;101494.81;5033124;28;20402;-55
2022/09/18 09:56:31;;;;;;;7.32;2.45;;;;;;;13.19;97.46;101478.53;5047908;28;20017;-57
2022/09/18 09:59:08;;;;;;;5.90;2.40;;;;;;;13.21;96.99;101476.63;5041191;28;20193;-55
2022/09/18 10:01:55;;;;;;;5.65;2.22;;;;;;;13.24;98.08;101466.56;5042804;28;20028;-56
2022/09/18 10:04:35;;;;;;;8.38;2.70;;;;;;;13.31;97.19;101456.28;5051788;28;20023;-56
2022/09/18 10:07:26;;;;;;;4.75;2.42;;;;;;;13.38;96.53;101460.19;5042701;28;20025;-57
2022/09/18 10:10:00;;;;;;;4.72;2.63;;;;;;;13.42;96.99;101453.66;5042838;28;20056;-57
2022/09/18 10:12:31;;;;;;;7.75;2.10;;;;;;;13.44;97.05;101451.69;5056589;28;20041;-57
2022/09/18 10:15:12;;;;;;;4.85;1.92;;;;;;;13.46;96.65;101452.41;5059459;28;20486;-56
2022/09/18 10:17:40;;;;;;;8.00;2.70;;;;;;;13.52;96.86;101459.06;5048688;28;20064;-56
2022/09/18 10:20:06;;;;;;;5.72;3.00;;;;;;;13.59;96.75;101451.44;5055209;28;20128;-56
2022/09/18 10:22:33;;;;;;;5.35;2.35;;;;;;;13.62;96.73;101454.72;5055153;28;20036;-57
2022/09/18 10:24:59;;;;;;;6.18;1.80;;;;;;;13.68;96.50;101462.22;5058307;28;20151;-56
2022/09/18 10:27:25;;;;;;;6.20;1.83;;;;;;;13.71;96.18;101460.31;5049571;28;20162;-57
2022/09/18 10:29:52;;;;;;;4.35;1.58;;;;;;;13.78;95.35;101456.16;5048098;28;20052;-57
2022/09/18 10:32:32;;;;;;;4.78;1.85;;;;;;;13.85;95.15;101457.34;5048732;28;20727;-55
2022/09/18 10:34:57;;;;;;;3.28;1.20;;;;;;;13.92;96.32;101457.69;5048048;28;20071;-57
2022/09/18 10:37:29;;;;;;;4.43;1.17;;;;;;;13.95;95.81;101460.97;5049050;28;20107;-57
2022/09/18 10:39:58;;;;;;;6.65;1.55;;;;;;;13.96;93.18;101459.16;5051759;28;20052;-57
2022/09/18 10:42:26;;;;;;;2.30;1.10;;;;;;;13.95;91.55;101465.47;5047907;28;20036;-56
2022/09/18 10:44:56;;;;;;;3.55;1.20;;;;;;;13.92;89.03;101457.69;5050545;28;20119;-56
2022/09/18 10:47:24;;;;;;;2.92;0.90;;;;;;;13.93;90.22;101454.06;5050243;28;20029;-56
2022/09/18 10:50:06;;;;;;;3.92;1.42;;;;;;;13.92;89.69;101450.53;5052238;28;20103;-57
2022/09/18 10:52:39;;;;;;;6.47;1.60;;;;;;;13.96;90.42;101445.81;5053389;28;20150;-57
2022/09/18 10:55:04;;;;;;;4.18;1.55;;;;;;;13.97;91.07;101432.34;5048925;28;20130;-57
2022/09/18 10:57:37;;;;;;;2.33;1.20;;;;;;;13.99;91.31;101440.19;5051593;28;20087;-57
2022/09/18 11:00:32;;;;;;;3.33;1.70;;;;;;;14.07;92.31;101433.28;5049370;28;20261;-55
2022/09/18 11:03:25;;;;;;;6.07;1.88;;;;;;;14.03;92.50;101423.81;5048427;28;20029;-57
2022/09/18 11:05:57;;;;;;;6.18;2.13;;;;;;;14.03;91.07;101426.47;5019604;28;20530;-57
2022/09/18 11:08:27;;;;;;;3.28;1.70;;;;;;;14.05;91.29;101423.69;5041938;28;20115;-56
2022/09/18 11:11:05;;;;;;;4.43;1.90;;;;;;;14.05;91.02;101424.56;5053583;28;20052;-57
2022/09/18 11:13:31;;;;;;;5.00;1.88;;;;;;;14.01;90.66;101438.28;5044725;28;20059;-55
2022/09/18 11:16:01;;;;;;;3.97;1.77;;;;;;;13.95;90.95;101446.78;5056345;28;20275;-57
2022/09/18 11:18:29;;;;;;;7.05;1.70;;;;;;;13.84;91.26;101445.00;5053042;28;20020;-57
2022/09/18 11:20:58;;;;;;;6.57;1.93;;;;;;;13.83;91.55;101467.31;5054642;28;20074;-55
2022/09/18 11:26:56;;;;;;;7.30;3.08;;;;;;;13.62;92.35;101457.41;5035824;28;20051;-57
2022/09/18 11:29:24;;;;;;;5.32;2.15;;;;;;;13.53;92.48;101470.63;5049546;28;20402;-58
2022/09/18 11:31:57;;;;;;;7.32;2.10;;;;;;;13.48;93.60;101470.97;5058002;28;20028;-58
2022/09/18 11:34:29;;;;;;;3.45;1.45;;;;;;;13.41;93.73;101475.09;5066239;28;20044;-57
2022/09/18 11:36:59;;;;;;;5.70;1.42;;;;;;;13.31;91.80;101477.63;5053189;28;20513;-58